sensor_id;sensor_type;location;lat;lon;timestamp;pressure;altitude;pressure_sealevel;temperature;humidity
72285;BME280;60220;53.552;10.092;2023-03-13T00:01:11;100029.75;;;8.32;83.16
72285;BME280;60220;53.552;10.092;2023-03-13T00:03:40;100021.19;;;8.17;83.75
72285;BME280;60220;53.552;10.092;2023-03-13T00:06:06;100026.28;;;8.27;83.92
72285;BME280;60220;53.552;10.092;2023-03-13T00:08:36;100017.06;;;8.59;83.08
72285;BME280;60220;53.552;10.092;2023-03-13T00:11:03;100019.00;;;8.48;82.11
72285;BME280;60220;53.552;10.092;2023-03-13T00:13:33;100009.16;;;8.64;83.17
72285;BME280;60220;53.552;10.092;2023-03-13T00:16:01;99993.84;;;8.90;82.25
72285;BME280;60220;53.552;10.092;2023-03-13T00:18:28;99990.75;;;8.67;81.72
72285;BME280;60220;53.552;10.092;2023-03-13T00:20:59;99987.84;;;8.35;81.78
72285;BME280;60220;53.552;10.092;2023-03-13T00:23:29;99992.56;;;8.65;81.52
72285;BME280;60220;53.552;10.092;2023-03-13T00:25:56;99995.69;;;8.35;82.92
72285;BME280;60220;53.552;10.092;2023-03-13T00:28:23;99991.69;;;8.09;84.38
72285;BME280;60220;53.552;10.092;2023-03-13T00:30:59;99987.44;;;8.59;83.53
72285;BME280;60220;53.552;10.092;2023-03-13T00:33:30;99986.53;;;8.61;82.61
72285;BME280;60220;53.552;10.092;2023-03-13T00:36:02;99968.78;;;8.27;82.52
72285;BME280;60220;53.552;10.092;2023-03-13T00:38:29;99977.50;;;8.78;82.37
72285;BME280;60220;53.552;10.092;2023-03-13T00:41:00;99977.22;;;8.44;82.54
72285;BME280;60220;53.552;10.092;2023-03-13T00:43:27;99976.66;;;8.22;83.75
72285;BME280;60220;53.552;10.092;2023-03-13T00:45:56;99963.41;;;7.77;84.48
72285;BME280;60220;53.552;10.092;2023-03-13T00:48:23;99964.97;;;7.89;84.96
72285;BME280;60220;53.552;10.092;2023-03-13T00:50:50;99951.97;;;7.86;84.70
72285;BME280;60220;53.552;10.092;2023-03-13T00:53:18;99959.91;;;7.80;84.78
72285;BME280;60220;53.552;10.092;2023-03-13T00:55:52;99941.41;;;7.94;85.12
72285;BME280;60220;53.552;10.092;2023-03-13T00:58:21;99932.72;;;7.92;85.10
72285;BME280;60220;53.552;10.092;2023-03-13T01:00:47;99939.22;;;7.65;85.73
72285;BME280;60220;53.552;10.092;2023-03-13T01:03:14;99931.00;;;7.89;85.91
72285;BME280;60220;53.552;10.092;2023-03-13T01:05:41;99930.78;;;7.45;86.19
72285;BME280;60220;53.552;10.092;2023-03-13T01:08:09;99940.47;;;7.37;86.51
72285;BME280;60220;53.552;10.092;2023-03-13T01:10:39;99922.53;;;7.75;86.97
72285;BME280;60220;53.552;10.092;2023-03-13T01:13:06;99924.69;;;7.46;86.39
72285;BME280;60220;53.552;10.092;2023-03-13T01:15:33;99913.31;;;7.50;86.53
72285;BME280;60220;53.552;10.092;2023-03-13T01:18:00;99926.56;;;7.34;86.87
72285;BME280;60220;53.552;10.092;2023-03-13T01:20:28;99909.75;;;7.54;86.89
72285;BME280;60220;53.552;10.092;2023-03-13T01:22:55;99899.09;;;7.70;86.48
72285;BME280;60220;53.552;10.092;2023-03-13T01:25:24;99900.09;;;7.62;86.33
72285;BME280;60220;53.552;10.092;2023-03-13T01:27:52;99890.31;;;7.73;86.82
72285;BME280;60220;53.552;10.092;2023-03-13T01:30:21;99888.63;;;7.70;86.97
72285;BME280;60220;53.552;10.092;2023-03-13T01:32:48;99885.72;;;7.90;85.94
72285;BME280;60220;53.552;10.092;2023-03-13T01:35:17;99880.63;;;7.81;87.30
72285;BME280;60220;53.552;10.092;2023-03-13T01:37:44;99874.94;;;7.55;86.34
72285;BME280;60220;53.552;10.092;2023-03-13T01:40:11;99869.09;;;7.94;85.55
72285;BME280;60220;53.552;10.092;2023-03-13T01:42:52;99858.78;;;7.85;85.50
72285;BME280;60220;53.552;10.092;2023-03-13T01:48:28;99844.09;;;7.78;87.32
72285;BME280;60220;53.552;10.092;2023-03-13T01:50:59;99838.84;;;7.81;87.09
72285;BME280;60220;53.552;10.092;2023-03-13T01:53:28;99836.69;;;8.04;86.00
72285;BME280;60220;53.552;10.092;2023-03-13T01:55:57;99826.31;;;8.01;86.71
72285;BME280;60220;53.552;10.092;2023-03-13T01:58:31;99816.22;;;7.78;86.08
72285;BME280;60220;53.552;10.092;2023-03-13T02:00:59;99812.59;;;7.87;85.69
72285;BME280;60220;53.552;10.092;2023-03-13T02:03:27;99802.78;;;8.01;85.58
72285;BME280;60220;53.552;10.092;2023-03-13T02:05:54;99802.22;;;7.83;85.48
72285;BME280;60220;53.552;10.092;2023-03-13T02:08:24;99796.72;;;7.99;84.94
72285;BME280;60220;53.552;10.092;2023-03-13T02:11:05;99793.94;;;8.08;85.49
72285;BME280;60220;53.552;10.092;2023-03-13T02:13:36;99779.03;;;8.13;84.80
72285;BME280;60220;53.552;10.092;2023-03-13T02:16:03;99780.13;;;8.02;85.52
72285;BME280;60220;53.552;10.092;2023-03-13T02:18:35;99779.31;;;7.98;86.03
72285;BME280;60220;53.552;10.092;2023-03-13T02:21:10;99781.53;;;8.18;85.85
72285;BME280;60220;53.552;10.092;2023-03-13T02:23:46;99766.34;;;8.40;85.73
72285;BME280;60220;53.552;10.092;2023-03-13T02:26:20;99765.25;;;8.04;84.79
72285;BME280;60220;53.552;10.092;2023-03-13T02:28:49;99756.56;;;8.03;85.61
72285;BME280;60220;53.552;10.092;2023-03-13T02:31:16;99760.19;;;7.96;85.06
72285;BME280;60220;53.552;10.092;2023-03-13T02:33:43;99756.56;;;8.03;86.57
72285;BME280;60220;53.552;10.092;2023-03-13T02:36:10;99746.50;;;7.82;86.98
72285;BME280;60220;53.552;10.092;2023-03-13T02:38:46;99742.31;;;8.19;86.20
72285;BME280;60220;53.552;10.092;2023-03-13T02:41:16;99743.38;;;8.11;85.98
72285;BME280;60220;53.552;10.092;2023-03-13T02:43:45;99732.69;;;7.77;86.75
72285;BME280;60220;53.552;10.092;2023-03-13T02:46:13;99723.28;;;7.65;87.78
72285;BME280;60220;53.552;10.092;2023-03-13T02:48:45;99725.66;;;7.79;88.08
72285;BME280;60220;53.552;10.092;2023-03-13T02:51:16;99720.72;;;7.62;88.27
72285;BME280;60220;53.552;10.092;2023-03-13T02:53:45;99720.44;;;7.79;88.53
72285;BME280;60220;53.552;10.092;2023-03-13T02:56:14;99723.94;;;7.78;89.39
72285;BME280;60220;53.552;10.092;2023-03-13T02:58:44;99715.09;;;7.87;88.41
72285;BME280;60220;53.552;10.092;2023-03-13T03:01:11;99701.47;;;7.68;89.61
72285;BME280;60220;53.552;10.092;2023-03-13T03:03:37;99700.66;;;7.64;89.79
72285;BME280;60220;53.552;10.092;2023-03-13T03:06:05;99687.63;;;7.63;89.75
72285;BME280;60220;53.552;10.092;2023-03-13T03:08:32;99680.31;;;7.34;90.70
72285;BME280;60220;53.552;10.092;2023-03-13T03:10:59;99682.16;;;7.27;91.19
72285;BME280;60220;53.552;10.092;2023-03-13T03:13:28;99680.47;;;7.74;92.27
72285;BME280;60220;53.552;10.092;2023-03-13T03:15:56;99674.44;;;8.16;90.83
72285;BME280;60220;53.552;10.092;2023-03-13T03:18:22;99668.72;;;7.52;90.71
72285;BME280;60220;53.552;10.092;2023-03-13T03:20:49;99664.75;;;7.77;89.89
72285;BME280;60220;53.552;10.092;2023-03-13T03:23:16;99659.22;;;7.92;90.14
72285;BME280;60220;53.552;10.092;2023-03-13T03:25:42;99650.84;;;7.75;90.22
72285;BME280;60220;53.552;10.092;2023-03-13T03:28:09;99643.91;;;7.74;90.91
72285;BME280;60220;53.552;10.092;2023-03-13T03:30:36;99641.69;;;7.53;90.85
72285;BME280;60220;53.552;10.092;2023-03-13T03:33:04;99632.53;;;7.76;91.25
72285;BME280;60220;53.552;10.092;2023-03-13T03:35:30;99627.19;;;8.24;90.05
72285;BME280;60220;53.552;10.092;2023-03-13T03:37:58;99621.16;;;7.79;91.33
72285;BME280;60220;53.552;10.092;2023-03-13T03:40:25;99621.47;;;7.64;90.92
72285;BME280;60220;53.552;10.092;2023-03-13T03:42:54;99608.69;;;7.49;92.05
72285;BME280;60220;53.552;10.092;2023-03-13T03:45:21;99611.81;;;7.67;91.56
72285;BME280;60220;53.552;10.092;2023-03-13T03:47:50;99612.38;;;7.83;91.58
72285;BME280;60220;53.552;10.092;2023-03-13T03:50:26;99600.53;;;7.67;92.48
72285;BME280;60220;53.552;10.092;2023-03-13T03:52:55;99591.34;;;7.46;92.39
72285;BME280;60220;53.552;10.092;2023-03-13T03:55:31;99579.38;;;7.77;92.43
72285;BME280;60220;53.552;10.092;2023-03-13T03:57:58;99584.22;;;7.53;92.61
72285;BME280;60220;53.552;10.092;2023-03-13T04:00:25;99582.66;;;7.46;93.71
72285;BME280;60220;53.552;10.092;2023-03-13T04:02:52;99570.00;;;7.69;92.71
72285;BME280;60220;53.552;10.092;2023-03-13T04:05:22;99562.72;;;7.42;92.84
72285;BME280;60220;53.552;10.092;2023-03-13T04:07:53;99558.00;;;7.60;93.63
72285;BME280;60220;53.552;10.092;2023-03-13T04:10:22;99553.84;;;7.49;93.57
72285;BME280;60220;53.552;10.092;2023-03-13T04:12:49;99553.97;;;7.43;94.44
72285;BME280;60220;53.552;10.092;2023-03-13T04:15:18;99541.78;;;7.43;94.19
72285;BME280;60220;53.552;10.092;2023-03-13T04:17:47;99537.75;;;7.70;94.81
72285;BME280;60220;53.552;10.092;2023-03-13T04:20:18;99532.34;;;7.79;93.90
72285;BME280;60220;53.552;10.092;2023-03-13T04:22:45;99533.31;;;7.75;93.08
72285;BME280;60220;53.552;10.092;2023-03-13T04:25:23;99516.00;;;7.69;93.90
72285;BME280;60220;53.552;10.092;2023-03-13T04:27:49;99507.75;;;7.48;94.15
72285;BME280;60220;53.552;10.092;2023-03-13T04:30:16;99500.81;;;7.47;94.32
72285;BME280;60220;53.552;10.092;2023-03-13T04:32:49;99491.47;;;7.37;94.71
72285;BME280;60220;53.552;10.092;2023-03-13T04:35:18;99486.50;;;7.64;94.53
72285;BME280;60220;53.552;10.092;2023-03-13T04:37:45;99473.69;;;7.54;94.01
72285;BME280;60220;53.552;10.092;2023-03-13T04:40:12;99476.94;;;7.65;94.72
72285;BME280;60220;53.552;10.092;2023-03-13T04:42:41;99461.50;;;7.53;94.47
72285;BME280;60220;53.552;10.092;2023-03-13T04:45:10;99458.22;;;7.45;94.37
72285;BME280;60220;53.552;10.092;2023-03-13T04:47:37;99440.78;;;7.47;94.61
72285;BME280;60220;53.552;10.092;2023-03-13T04:50:04;99435.69;;;7.41;94.92
72285;BME280;60220;53.552;10.092;2023-03-13T04:52:31;99433.28;;;7.70;94.85
72285;BME280;60220;53.552;10.092;2023-03-13T04:54:58;99414.78;;;7.41;94.81
72285;BME280;60220;53.552;10.092;2023-03-13T04:57:28;99416.66;;;7.35;95.90
72285;BME280;60220;53.552;10.092;2023-03-13T04:59:56;99409.50;;;7.44;95.39
72285;BME280;60220;53.552;10.092;2023-03-13T05:02:25;99403.25;;;7.51;95.24
72285;BME280;60220;53.552;10.092;2023-03-13T05:05:06;99397.53;;;7.33;96.22
72285;BME280;60220;53.552;10.092;2023-03-13T05:07:33;99391.97;;;7.49;96.14
72285;BME280;60220;53.552;10.092;2023-03-13T05:09:59;99374.47;;;7.54;95.60
72285;BME280;60220;53.552;10.092;2023-03-13T05:12:28;99367.03;;;7.37;96.36
72285;BME280;60220;53.552;10.092;2023-03-13T05:14:56;99350.28;;;7.46;96.28
72285;BME280;60220;53.552;10.092;2023-03-13T05:17:23;99344.72;;;7.61;97.27
72285;BME280;60220;53.552;10.092;2023-03-13T05:19:51;99332.91;;;7.45;96.45
72285;BME280;60220;53.552;10.092;2023-03-13T05:22:18;99330.41;;;7.40;96.98
72285;BME280;60220;53.552;10.092;2023-03-13T05:24:47;99321.69;;;7.40;97.52
72285;BME280;60220;53.552;10.092;2023-03-13T05:27:24;99322.47;;;7.45;97.70
72285;BME280;60220;53.552;10.092;2023-03-13T05:29:51;99311.88;;;7.51;97.82
72285;BME280;60220;53.552;10.092;2023-03-13T05:32:19;99313.16;;;7.33;97.41
72285;BME280;60220;53.552;10.092;2023-03-13T05:34:45;99307.06;;;7.32;98.36
72285;BME280;60220;53.552;10.092;2023-03-13T05:37:14;99319.75;;;7.49;98.03
72285;BME280;60220;53.552;10.092;2023-03-13T05:39:41;99306.88;;;7.42;98.50
72285;BME280;60220;53.552;10.092;2023-03-13T05:42:08;99319.72;;;7.51;98.14
72285;BME280;60220;53.552;10.092;2023-03-13T05:44:34;99315.28;;;7.53;98.81
72285;BME280;60220;53.552;10.092;2023-03-13T05:47:01;99300.63;;;7.47;98.92
72285;BME280;60220;53.552;10.092;2023-03-13T05:49:31;99285.69;;;7.54;98.52
72285;BME280;60220;53.552;10.092;2023-03-13T05:52:00;99281.34;;;7.53;98.81
72285;BME280;60220;53.552;10.092;2023-03-13T05:54:30;99275.31;;;7.51;98.91
72285;BME280;60220;53.552;10.092;2023-03-13T05:56:59;99274.97;;;7.66;98.39
72285;BME280;60220;53.552;10.092;2023-03-13T05:59:25;99264.88;;;7.51;98.86
72285;BME280;60220;53.552;10.092;2023-03-13T06:01:55;99259.72;;;7.48;98.66
72285;BME280;60220;53.552;10.092;2023-03-13T06:04:21;99252.25;;;7.68;98.28
72285;BME280;60220;53.552;10.092;2023-03-13T06:06:52;99264.75;;;7.91;97.88
72285;BME280;60220;53.552;10.092;2023-03-13T06:09:20;99262.50;;;7.77;98.18
72285;BME280;60220;53.552;10.092;2023-03-13T06:11:47;99242.13;;;7.56;98.17
72285;BME280;60220;53.552;10.092;2023-03-13T06:14:14;99247.25;;;7.59;98.92
72285;BME280;60220;53.552;10.092;2023-03-13T06:16:42;99236.00;;;7.91;97.71
72285;BME280;60220;53.552;10.092;2023-03-13T06:19:09;99245.50;;;7.61;98.21
72285;BME280;60220;53.552;10.092;2023-03-13T06:21:36;99243.75;;;7.60;97.82
72285;BME280;60220;53.552;10.092;2023-03-13T06:24:04;99241.81;;;7.68;97.36
72285;BME280;60220;53.552;10.092;2023-03-13T06:26:31;99236.38;;;7.77;98.35
72285;BME280;60220;53.552;10.092;2023-03-13T06:28:58;99234.72;;;7.73;97.73
72285;BME280;60220;53.552;10.092;2023-03-13T06:31:24;99238.16;;;7.75;98.08
72285;BME280;60220;53.552;10.092;2023-03-13T06:33:52;99233.50;;;7.52;98.68
72285;BME280;60220;53.552;10.092;2023-03-13T06:36:19;99222.63;;;7.69;98.16
72285;BME280;60220;53.552;10.092;2023-03-13T06:38:45;99216.50;;;8.02;99.15
72285;BME280;60220;53.552;10.092;2023-03-13T06:41:14;99220.72;;;8.08;98.70
72285;BME280;60220;53.552;10.092;2023-03-13T06:43:41;99207.06;;;7.98;98.21
72285;BME280;60220;53.552;10.092;2023-03-13T06:46:07;99207.78;;;8.03;99.13
72285;BME280;60220;53.552;10.092;2023-03-13T06:48:40;99191.63;;;8.21;98.77
72285;BME280;60220;53.552;10.092;2023-03-13T06:51:10;99188.72;;;8.00;98.41
72285;BME280;60220;53.552;10.092;2023-03-13T06:53:39;99180.88;;;8.00;98.70
72285;BME280;60220;53.552;10.092;2023-03-13T06:56:06;99169.16;;;8.14;98.75
72285;BME280;60220;53.552;10.092;2023-03-13T06:58:35;99170.94;;;8.12;99.27
72285;BME280;60220;53.552;10.092;2023-03-13T07:01:05;99159.38;;;8.21;99.12
72285;BME280;60220;53.552;10.092;2023-03-13T07:03:32;99154.78;;;8.31;99.40
72285;BME280;60220;53.552;10.092;2023-03-13T07:06:03;99141.75;;;8.28;98.97
72285;BME280;60220;53.552;10.092;2023-03-13T07:08:30;99153.56;;;8.11;99.61
72285;BME280;60220;53.552;10.092;2023-03-13T07:10:59;99170.78;;;8.18;99.33
72285;BME280;60220;53.552;10.092;2023-03-13T07:13:26;99158.53;;;8.51;99.55
72285;BME280;60220;53.552;10.092;2023-03-13T07:15:54;99150.28;;;8.36;99.23
72285;BME280;60220;53.552;10.092;2023-03-13T07:18:21;99152.41;;;8.21;99.68
72285;BME280;60220;53.552;10.092;2023-03-13T07:20:51;99148.63;;;8.61;99.54
72285;BME280;60220;53.552;10.092;2023-03-13T07:23:19;99142.25;;;8.42;99.45
72285;BME280;60220;53.552;10.092;2023-03-13T07:25:53;99127.03;;;8.82;99.53
72285;BME280;60220;53.552;10.092;2023-03-13T07:28:20;99121.91;;;8.51;99.22
72285;BME280;60220;53.552;10.092;2023-03-13T07:30:47;99133.75;;;8.34;100.00
72285;BME280;60220;53.552;10.092;2023-03-13T07:33:15;99134.56;;;8.65;100.00
72285;BME280;60220;53.552;10.092;2023-03-13T07:35:47;99142.94;;;8.76;99.49
72285;BME280;60220;53.552;10.092;2023-03-13T07:38:14;99119.16;;;8.56;99.96
72285;BME280;60220;53.552;10.092;2023-03-13T07:40:48;99122.84;;;8.77;100.00
72285;BME280;60220;53.552;10.092;2023-03-13T07:43:15;99112.66;;;8.95;100.00
72285;BME280;60220;53.552;10.092;2023-03-13T07:45:50;99109.16;;;8.96;100.00
72285;BME280;60220;53.552;10.092;2023-03-13T07:48:18;99107.88;;;9.08;100.00
72285;BME280;60220;53.552;10.092;2023-03-13T07:50:48;99115.28;;;8.95;100.00
72285;BME280;60220;53.552;10.092;2023-03-13T07:53:15;99108.22;;;9.48;100.00
72285;BME280;60220;53.552;10.092;2023-03-13T07:55:56;99100.09;;;9.06;99.58
72285;BME280;60220;53.552;10.092;2023-03-13T07:58:24;99094.44;;;9.19;100.00
72285;BME280;60220;53.552;10.092;2023-03-13T08:00:51;99107.56;;;9.42;99.75
72285;BME280;60220;53.552;10.092;2023-03-13T08:03:20;99102.13;;;9.23;100.00
72285;BME280;60220;53.552;10.092;2023-03-13T08:05:57;99100.94;;;9.57;100.00
72285;BME280;60220;53.552;10.092;2023-03-13T08:08:24;99091.56;;;9.51;100.00
72285;BME280;60220;53.552;10.092;2023-03-13T08:10:51;99082.47;;;9.61;100.00
72285;BME280;60220;53.552;10.092;2023-03-13T08:13:19;99093.53;;;9.92;100.00
72285;BME280;60220;53.552;10.092;2023-03-13T08:15:46;99082.72;;;10.02;100.00
72285;BME280;60220;53.552;10.092;2023-03-13T08:18:13;99073.84;;;10.29;99.83
72285;BME280;60220;53.552;10.092;2023-03-13T08:20:41;99074.69;;;10.06;100.00
72285;BME280;60220;53.552;10.092;2023-03-13T08:23:10;99081.41;;;10.13;100.00
72285;BME280;60220;53.552;10.092;2023-03-13T08:25:36;99074.91;;;10.47;100.00
72285;BME280;60220;53.552;10.092;2023-03-13T08:28:03;99070.09;;;10.36;100.00
72285;BME280;60220;53.552;10.092;2023-03-13T08:30:30;99064.16;;;10.31;100.00
72285;BME280;60220;53.552;10.092;2023-03-13T08:32:56;99069.28;;;10.34;100.00
72285;BME280;60220;53.552;10.092;2023-03-13T08:35:23;99056.47;;;10.48;100.00
72285;BME280;60220;53.552;10.092;2023-03-13T08:37:52;99059.53;;;10.59;100.00
72285;BME280;60220;53.552;10.092;2023-03-13T08:40:18;99063.53;;;10.46;100.00
72285;BME280;60220;53.552;10.092;2023-03-13T08:42:45;99058.06;;;10.52;100.00
72285;BME280;60220;53.552;10.092;2023-03-13T08:45:12;99051.44;;;10.65;100.00
72285;BME280;60220;53.552;10.092;2023-03-13T08:47:38;99055.91;;;10.84;100.00
72285;BME280;60220;53.552;10.092;2023-03-13T08:50:06;99047.13;;;10.63;100.00
72285;BME280;60220;53.552;10.092;2023-03-13T08:52:32;99049.88;;;10.82;100.00
72285;BME280;60220;53.552;10.092;2023-03-13T08:55:00;99033.34;;;10.79;100.00
72285;BME280;60220;53.552;10.092;2023-03-13T08:57:27;99040.97;;;10.86;100.00
72285;BME280;60220;53.552;10.092;2023-03-13T08:59:53;99031.81;;;10.96;100.00
72285;BME280;60220;53.552;10.092;2023-03-13T09:02:20;99032.06;;;11.10;100.00
72285;BME280;60220;53.552;10.092;2023-03-13T09:04:47;99023.66;;;11.22;99.23
72285;BME280;60220;53.552;10.092;2023-03-13T09:07:16;99025.97;;;11.30;98.72
72285;BME280;60220;53.552;10.092;2023-03-13T09:09:43;99024.50;;;11.43;97.54
72285;BME280;60220;53.552;10.092;2023-03-13T09:12:11;99026.28;;;11.42;96.62
72285;BME280;60220;53.552;10.092;2023-03-13T09:14:37;99013.91;;;11.64;96.37
72285;BME280;60220;53.552;10.092;2023-03-13T09:17:04;99014.22;;;11.57;95.59
72285;BME280;60220;53.552;10.092;2023-03-13T09:19:31;99016.63;;;11.43;95.92
72285;BME280;60220;53.552;10.092;2023-03-13T09:21:58;99015.91;;;11.39;96.03
72285;BME280;60220;53.552;10.092;2023-03-13T09:24:25;99009.59;;;11.43;96.20
72285;BME280;60220;53.552;10.092;2023-03-13T09:26:51;99014.03;;;11.61;96.33
72285;BME280;60220;53.552;10.092;2023-03-13T09:29:20;99013.00;;;11.65;95.80
72285;BME280;60220;53.552;10.092;2023-03-13T09:31:46;98989.94;;;11.71;95.52
72285;BME280;60220;53.552;10.092;2023-03-13T09:34:13;99025.16;;;11.48;96.14
72285;BME280;60220;53.552;10.092;2023-03-13T09:36:39;99019.28;;;11.61;95.85
72285;BME280;60220;53.552;10.092;2023-03-13T09:39:06;99011.53;;;11.58;95.81
72285;BME280;60220;53.552;10.092;2023-03-13T09:41:36;98999.41;;;11.95;95.15
72285;BME280;60220;53.552;10.092;2023-03-13T09:44:09;99000.66;;;11.86;95.08
72285;BME280;60220;53.552;10.092;2023-03-13T09:46:41;99015.44;;;11.89;94.60
72285;BME280;60220;53.552;10.092;2023-03-13T09:49:20;99031.75;;;11.77;95.48
72285;BME280;60220;53.552;10.092;2023-03-13T09:51:53;99023.88;;;11.56;96.29
72285;BME280;60220;53.552;10.092;2023-03-13T09:54:24;99022.09;;;11.77;97.03
72285;BME280;60220;53.552;10.092;2023-03-13T09:56:54;99028.88;;;11.83;96.96
72285;BME280;60220;53.552;10.092;2023-03-13T09:59:28;99014.75;;;12.04;95.79
72285;BME280;60220;53.552;10.092;2023-03-13T10:01:57;99022.03;;;11.79;96.55
72285;BME280;60220;53.552;10.092;2023-03-13T10:04:33;99017.44;;;12.02;95.91
72285;BME280;60220;53.552;10.092;2023-03-13T10:07:03;99009.34;;;11.88;96.07
72285;BME280;60220;53.552;10.092;2023-03-13T10:09:31;99026.09;;;11.86;96.33
72285;BME280;60220;53.552;10.092;2023-03-13T10:12:04;99022.28;;;12.30;95.37
72285;BME280;60220;53.552;10.092;2023-03-13T10:14:38;99014.47;;;12.10;95.25
72285;BME280;60220;53.552;10.092;2023-03-13T10:17:14;99025.81;;;12.29;94.13
72285;BME280;60220;53.552;10.092;2023-03-13T10:19:47;99015.94;;;12.16;94.10
72285;BME280;60220;53.552;10.092;2023-03-13T10:22:23;99033.34;;;12.18;94.04
72285;BME280;60220;53.552;10.092;2023-03-13T10:24:54;99032.00;;;12.28;93.69
72285;BME280;60220;53.552;10.092;2023-03-13T10:27:24;99030.78;;;12.35;93.40
72285;BME280;60220;53.552;10.092;2023-03-13T10:29:51;99032.34;;;12.39;93.08
72285;BME280;60220;53.552;10.092;2023-03-13T10:32:20;99038.63;;;12.18;93.75
72285;BME280;60220;53.552;10.092;2023-03-13T10:34:55;99033.19;;;12.21;93.94
72285;BME280;60220;53.552;10.092;2023-03-13T10:37:24;99018.56;;;12.34;94.26
72285;BME280;60220;53.552;10.092;2023-03-13T10:39:52;99032.06;;;12.27;93.51
72285;BME280;60220;53.552;10.092;2023-03-13T10:42:26;99019.13;;;12.94;91.64
72285;BME280;60220;53.552;10.092;2023-03-13T10:44:58;99020.09;;;13.27;88.99
72285;BME280;60220;53.552;10.092;2023-03-13T10:47:26;99013.41;;;13.20;87.08
72285;BME280;60220;53.552;10.092;2023-03-13T10:50:03;99014.63;;;13.48;86.24
72285;BME280;60220;53.552;10.092;2023-03-13T10:52:34;99010.31;;;13.29;86.47
72285;BME280;60220;53.552;10.092;2023-03-13T10:55:10;99015.59;;;13.29;86.45
72285;BME280;60220;53.552;10.092;2023-03-13T10:57:38;99014.63;;;13.48;85.48
72285;BME280;60220;53.552;10.092;2023-03-13T11:00:27;99012.28;;;13.59;84.80
72285;BME280;60220;53.552;10.092;2023-03-13T11:02:55;99016.34;;;13.31;84.66
72285;BME280;60220;53.552;10.092;2023-03-13T11:05:35;99024.56;;;13.08;85.33
72285;BME280;60220;53.552;10.092;2023-03-13T11:08:21;99014.00;;;13.60;83.91
72285;BME280;60220;53.552;10.092;2023-03-13T11:10:59;99015.53;;;13.64;83.68
72285;BME280;60220;53.552;10.092;2023-03-13T11:13:34;99008.44;;;13.31;84.25
72285;BME280;60220;53.552;10.092;2023-03-13T11:16:07;99005.44;;;13.39;83.97
72285;BME280;60220;53.552;10.092;2023-03-13T11:18:41;99009.19;;;13.51;83.99
72285;BME280;60220;53.552;10.092;2023-03-13T11:21:18;98994.13;;;13.86;81.96
72285;BME280;60220;53.552;10.092;2023-03-13T11:23:52;98985.94;;;13.59;80.59
72285;BME280;60220;53.552;10.092;2023-03-13T11:26:32;98973.53;;;13.76;80.18
72285;BME280;60220;53.552;10.092;2023-03-13T11:29:08;98973.91;;;14.33;78.79
72285;BME280;60220;53.552;10.092;2023-03-13T11:31:41;98971.66;;;14.26;77.18
72285;BME280;60220;53.552;10.092;2023-03-13T11:34:16;98952.06;;;14.61;77.25
72285;BME280;60220;53.552;10.092;2023-03-13T11:36:52;98963.53;;;14.76;76.04
72285;BME280;60220;53.552;10.092;2023-03-13T11:39:40;98950.63;;;14.85;74.70
72285;BME280;60220;53.552;10.092;2023-03-13T11:42:16;98958.41;;;14.43;76.13
72285;BME280;60220;53.552;10.092;2023-03-13T11:44:54;98960.44;;;14.06;76.35
72285;BME280;60220;53.552;10.092;2023-03-13T11:47:32;98972.72;;;14.07;75.95
72285;BME280;60220;53.552;10.092;2023-03-13T11:50:34;98968.28;;;14.23;75.36
72285;BME280;60220;53.552;10.092;2023-03-13T11:53:21;98977.72;;;13.96;76.41
72285;BME280;60220;53.552;10.092;2023-03-13T11:55:59;98962.41;;;14.03;76.72
72285;BME280;60220;53.552;10.092;2023-03-13T11:58:37;98958.22;;;14.46;76.55
72285;BME280;60220;53.552;10.092;2023-03-13T12:01:08;98950.56;;;14.26;76.10
72285;BME280;60220;53.552;10.092;2023-03-13T12:03:40;98936.56;;;14.55;75.92
72285;BME280;60220;53.552;10.092;2023-03-13T12:06:16;98954.44;;;14.65;74.40
72285;BME280;60220;53.552;10.092;2023-03-13T12:08:53;98941.53;;;14.30;74.76
72285;BME280;60220;53.552;10.092;2023-03-13T12:11:25;98940.06;;;14.85;73.19
72285;BME280;60220;53.552;10.092;2023-03-13T12:13:56;98925.31;;;15.11;71.52
72285;BME280;60220;53.552;10.092;2023-03-13T12:16:34;98934.88;;;15.14;71.53
72285;BME280;60220;53.552;10.092;2023-03-13T12:19:03;98951.88;;;15.24;71.41
72285;BME280;60220;53.552;10.092;2023-03-13T12:21:36;98920.09;;;14.95;70.32
72285;BME280;60220;53.552;10.092;2023-03-13T12:24:10;98915.59;;;15.12;69.93
72285;BME280;60220;53.552;10.092;2023-03-13T12:26:39;98935.84;;;14.83;70.84
72285;BME280;60220;53.552;10.092;2023-03-13T12:29:13;98924.88;;;15.19;68.47
72285;BME280;60220;53.552;10.092;2023-03-13T12:31:46;98931.69;;;14.79;69.11
72285;BME280;60220;53.552;10.092;2023-03-13T12:34:24;98927.50;;;14.75;70.79
72285;BME280;60220;53.552;10.092;2023-03-13T12:36:58;98941.09;;;15.27;68.81
72285;BME280;60220;53.552;10.092;2023-03-13T12:39:30;98928.25;;;15.35;68.22
72285;BME280;60220;53.552;10.092;2023-03-13T12:42:16;98910.59;;;15.49;68.00
72285;BME280;60220;53.552;10.092;2023-03-13T12:44:45;98921.22;;;15.64;67.94
72285;BME280;60220;53.552;10.092;2023-03-13T12:47:15;98904.56;;;15.33;68.43
72285;BME280;60220;53.552;10.092;2023-03-13T12:49:51;98894.66;;;15.65;66.40
72285;BME280;60220;53.552;10.092;2023-03-13T12:52:33;98893.88;;;15.35;65.98
72285;BME280;60220;53.552;10.092;2023-03-13T12:55:22;98900.53;;;15.56;65.22
72285;BME280;60220;53.552;10.092;2023-03-13T12:58:24;98907.09;;;16.18;63.10
72285;BME280;60220;53.552;10.092;2023-03-13T13:00:54;98884.06;;;15.65;62.81
72285;BME280;60220;53.552;10.092;2023-03-13T13:03:32;98893.06;;;16.30;60.57
72285;BME280;60220;53.552;10.092;2023-03-13T13:06:08;98904.00;;;16.12;60.22
72285;BME280;60220;53.552;10.092;2023-03-13T13:08:39;98908.22;;;16.28;57.74
72285;BME280;60220;53.552;10.092;2023-03-13T13:14:56;98886.72;;;16.06;56.72
72285;BME280;60220;53.552;10.092;2023-03-13T13:17:46;98882.09;;;15.96;56.09